IBE6123 SAEZ-LEMD
Flight info
| Callsign | IBE6123 |
|---|---|
| Flight time | N/A |
| Altitude | 35000 |
| Route | DORVO1A DORVO UN857 KOVGO DCT MOLSU UN857 DOGSU/N0474F370 UN857 ERETU/N0476F390 UN857 OPADU DCT GUNET N857 DEREV/N0470F400 N857 LZR DCT OXACA DCT SOTUK |
| Aircraft | B77L/H-SDE1E2E3FGHIJ2J3J4J5M1RWXY/LB1D1 |
Departure
| Time | 2026-05-06 00:04 |
|---|---|
| Airport | Ezeiza International Airport - Ministro Pistarini (SAEZ) |
Arrival
| Time | N/A |
|---|---|
| Airport | Adolfo Suárez Madrid–Barajas Airport (LEMD) |
| Time | Latitude | Longitude | Altitude | Speed | Heading |
|---|---|---|---|---|---|
| 2026-05-05 23:35 | -34.81603 | -58.53983 | 82 ft | 0 kts | 321° |
| 2026-05-05 23:53 | -34.81613 | -58.53974 | 79 ft | 0 kts | 321° |
| 2026-05-05 23:54 | -34.81613 | -58.53973 | 85 ft | 1 kts | 321° |
| 2026-05-05 23:54 | -34.81631 | -58.53953 | 85 ft | 4 kts | 313° |
| 2026-05-05 23:55 | -34.81650 | -58.53930 | 85 ft | 4 kts | 313° |
| 2026-05-05 23:55 | -34.81668 | -58.53905 | 85 ft | 4 kts | 304° |
| 2026-05-05 23:55 | -34.81681 | -58.53877 | 82 ft | 4 kts | 291° |
| 2026-05-05 23:55 | -34.81688 | -58.53846 | 79 ft | 4 kts | 262° |
| 2026-05-05 23:56 | -34.81682 | -58.53827 | 81 ft | 0 kts | 227° |
| 2026-05-05 23:58 | -34.81685 | -58.53830 | 79 ft | 2 kts | 227° |
| 2026-05-05 23:58 | -34.81702 | -58.53856 | 84 ft | 6 kts | 234° |
| 2026-05-05 23:58 | -34.81732 | -58.53915 | 84 ft | 10 kts | 239° |
| 2026-05-05 23:59 | -34.81774 | -58.54003 | 80 ft | 12 kts | 244° |
| 2026-05-05 23:59 | -34.81792 | -58.54105 | 82 ft | 12 kts | 272° |
| 2026-05-05 23:59 | -34.81780 | -58.54209 | 85 ft | 12 kts | 278° |
| 2026-05-05 23:59 | -34.81768 | -58.54313 | 81 ft | 12 kts | 278° |
| 2026-05-06 00:00 | -34.81756 | -58.54417 | 83 ft | 12 kts | 278° |
| 2026-05-06 00:00 | -34.81745 | -58.54522 | 80 ft | 12 kts | 277° |
| 2026-05-06 00:00 | -34.81765 | -58.54623 | 91 ft | 12 kts | 249° |
| 2026-05-06 00:00 | -34.81779 | -58.54725 | 80 ft | 12 kts | 270° |
| 2026-05-06 00:01 | -34.81766 | -58.54828 | 82 ft | 12 kts | 282° |
| 2026-05-06 00:01 | -34.81747 | -58.54932 | 82 ft | 12 kts | 282° |
| 2026-05-06 00:01 | -34.81728 | -58.55034 | 83 ft | 12 kts | 282° |
| 2026-05-06 00:01 | -34.81709 | -58.55137 | 80 ft | 12 kts | 283° |
| 2026-05-06 00:02 | -34.81694 | -58.55240 | 84 ft | 12 kts | 270° |
| 2026-05-06 00:02 | -34.81736 | -58.55327 | 85 ft | 12 kts | 212° |
| 2026-05-06 00:02 | -34.81819 | -58.55328 | 83 ft | 12 kts | 161° |
| 2026-05-06 00:02 | -34.81878 | -58.55312 | 82 ft | 7 kts | 178° |
| 2026-05-06 00:03 | -34.81915 | -58.55281 | 86 ft | 7 kts | 110° |
| 2026-05-06 00:03 | -34.81919 | -58.55264 | 82 ft | 0 kts | 104° |
| 2026-05-06 00:03 | -34.81935 | -58.55183 | 87 ft | 29 kts | 103° |
| 2026-05-06 00:04 | -34.82031 | -58.54643 | 86 ft | 100 kts | 102° |
| 2026-05-06 00:04 | -34.82225 | -58.53560 | 91 ft | 158 kts | 102° |
| 2026-05-06 00:04 | -34.82472 | -58.52116 | 296 ft | 181 kts | 101° |
| 2026-05-06 00:04 | -34.82747 | -58.50596 | 831 ft | 185 kts | 111° |
| 2026-05-06 00:05 | -34.84472 | -58.48255 | 2030 ft | 188 kts | 129° |
| 2026-05-06 00:05 | -34.85312 | -58.47039 | 2618 ft | 193 kts | 129° |
| 2026-05-06 00:05 | -34.86196 | -58.45799 | 3142 ft | 195 kts | 122° |
| 2026-05-06 00:06 | -34.86861 | -58.44298 | 3460 ft | 212 kts | 116° |
| 2026-05-06 00:06 | -34.87611 | -58.42618 | 3659 ft | 240 kts | 118° |
| 2026-05-06 00:06 | -34.88480 | -58.40762 | 3973 ft | 261 kts | 119° |
| 2026-05-06 00:06 | -34.89406 | -58.38809 | 4619 ft | 271 kts | 119° |
| 2026-05-06 00:07 | -34.90359 | -58.36793 | 5347 ft | 276 kts | 118° |
| 2026-05-06 00:07 | -34.90944 | -58.34563 | 5908 ft | 284 kts | 89° |
| 2026-05-06 00:07 | -34.90577 | -58.32200 | 6502 ft | 287 kts | 71° |
| 2026-05-06 00:07 | -34.89951 | -58.29850 | 7176 ft | 294 kts | 71° |
| 2026-05-06 00:08 | -34.89339 | -58.27507 | 7998 ft | 295 kts | 71° |
| 2026-05-06 00:08 | -34.88730 | -58.25108 | 8726 ft | 298 kts | 71° |
| 2026-05-06 00:08 | -34.88123 | -58.22660 | 9359 ft | 306 kts | 71° |
| 2026-05-06 00:08 | -34.87517 | -58.20147 | 10050 ft | 310 kts | 72° |
| 2026-05-06 00:09 | -34.86909 | -58.17581 | 10560 ft | 324 kts | 72° |
| 2026-05-06 00:09 | -34.86262 | -58.14832 | 10741 ft | 349 kts | 72° |
| 2026-05-06 00:09 | -34.85575 | -58.11887 | 10923 ft | 374 kts | 72° |
| 2026-05-06 00:09 | -34.84851 | -58.08759 | 11310 ft | 391 kts | 73° |
| 2026-05-06 00:10 | -34.84117 | -58.05571 | 11952 ft | 401 kts | 73° |
| 2026-05-06 00:10 | -34.83359 | -58.02275 | 12718 ft | 406 kts | 73° |
| 2026-05-06 00:10 | -34.82596 | -57.98951 | 13374 ft | 410 kts | 73° |
| 2026-05-06 00:10 | -34.81820 | -57.95577 | 13929 ft | 417 kts | 73° |
| 2026-05-06 00:11 | -34.81042 | -57.92207 | 14490 ft | 424 kts | 73° |
| 2026-05-06 00:11 | -34.80237 | -57.88726 | 15113 ft | 428 kts | 73° |
| 2026-05-06 00:11 | -34.79425 | -57.85226 | 15743 ft | 432 kts | 73° |
| 2026-05-06 00:11 | -34.78604 | -57.81687 | 16340 ft | 437 kts | 73° |
| 2026-05-06 00:12 | -34.77771 | -57.78106 | 16898 ft | 442 kts | 73° |
| 2026-05-06 00:12 | -34.76927 | -57.74480 | 17433 ft | 447 kts | 73° |
| 2026-05-06 00:12 | -34.76085 | -57.70864 | 17955 ft | 451 kts | 73° |
| 2026-05-06 00:12 | -34.75222 | -57.67165 | 18474 ft | 456 kts | 73° |
| 2026-05-06 00:13 | -34.74353 | -57.63442 | 19018 ft | 459 kts | 73° |
| 2026-05-06 00:13 | -34.73473 | -57.59684 | 19543 ft | 463 kts | 73° |
| 2026-05-06 00:13 | -34.72551 | -57.55928 | 20034 ft | 466 kts | 69° |
| 2026-05-06 00:13 | -34.71266 | -57.52292 | 20496 ft | 468 kts | 60° |
| 2026-05-06 00:14 | -34.69613 | -57.48877 | 20980 ft | 469 kts | 53° |
| 2026-05-06 00:14 | -34.67633 | -57.45718 | 21436 ft | 469 kts | 46° |
| 2026-05-06 00:14 | -34.65534 | -57.42725 | 21898 ft | 472 kts | 46° |
| 2026-05-06 00:14 | -34.63392 | -57.39685 | 22349 ft | 475 kts | 46° |
| 2026-05-06 00:15 | -34.61221 | -57.36591 | 22752 ft | 479 kts | 46° |
| 2026-05-06 00:15 | -34.59082 | -57.33526 | 23164 ft | 482 kts | 46° |
| 2026-05-06 00:15 | -34.56915 | -57.30405 | 23597 ft | 485 kts | 46° |
| 2026-05-06 00:15 | -34.54737 | -57.27258 | 23995 ft | 488 kts | 46° |
| 2026-05-06 00:16 | -34.52549 | -57.24092 | 24388 ft | 491 kts | 46° |
| 2026-05-06 00:16 | -34.50349 | -57.20909 | 24783 ft | 493 kts | 46° |
| 2026-05-06 00:16 | -34.48137 | -57.17713 | 25170 ft | 496 kts | 46° |
| 2026-05-06 00:16 | -34.45941 | -57.14542 | 25553 ft | 498 kts | 46° |
| 2026-05-06 00:17 | -34.43704 | -57.11318 | 25930 ft | 501 kts | 46° |
| 2026-05-06 00:17 | -34.41457 | -57.08083 | 26335 ft | 502 kts | 46° |
| 2026-05-06 00:17 | -34.39199 | -57.04835 | 26708 ft | 504 kts | 46° |
| 2026-05-06 00:17 | -34.36931 | -57.01576 | 27063 ft | 506 kts | 46° |
| 2026-05-06 00:18 | -34.34651 | -56.98302 | 27400 ft | 508 kts | 46° |
| 2026-05-06 00:18 | -34.32363 | -56.95019 | 27718 ft | 511 kts | 46° |
| 2026-05-06 00:18 | -34.30094 | -56.91765 | 28048 ft | 512 kts | 46° |
| 2026-05-06 00:18 | -34.27791 | -56.88467 | 28361 ft | 514 kts | 46° |
| 2026-05-06 00:19 | -34.25473 | -56.85150 | 28683 ft | 515 kts | 46° |
| 2026-05-06 00:19 | -34.23152 | -56.81838 | 29002 ft | 516 kts | 46° |
| 2026-05-06 00:19 | -34.20826 | -56.78525 | 29294 ft | 518 kts | 45° |
| 2026-05-06 00:19 | -34.18487 | -56.75199 | 29579 ft | 519 kts | 45° |
| 2026-05-06 00:20 | -34.16153 | -56.71879 | 29926 ft | 518 kts | 45° |
| 2026-05-06 00:20 | -34.13826 | -56.68571 | 30339 ft | 515 kts | 45° |
| 2026-05-06 00:20 | -34.11532 | -56.65311 | 30763 ft | 513 kts | 45° |
| 2026-05-06 00:20 | -34.09228 | -56.62040 | 31173 ft | 510 kts | 45° |
| 2026-05-06 00:21 | -34.06930 | -56.58782 | 31538 ft | 508 kts | 45° |
| 2026-05-06 00:21 | -34.05412 | -56.56631 | 31768 ft | 507 kts | 45° |
| 2026-05-06 00:21 | -34.03126 | -56.53395 | 32124 ft | 506 kts | 45° |
| 2026-05-06 00:21 | -34.00841 | -56.50165 | 32479 ft | 503 kts | 45° |
| 2026-05-06 00:22 | -33.98574 | -56.46962 | 32807 ft | 501 kts | 45° |
| 2026-05-06 00:22 | -33.96309 | -56.43765 | 33074 ft | 501 kts | 44° |
| 2026-05-06 00:22 | -33.94045 | -56.40572 | 33343 ft | 500 kts | 44° |
| 2026-05-06 00:22 | -33.91788 | -56.37389 | 33683 ft | 498 kts | 44° |
| 2026-05-06 00:23 | -33.89542 | -56.34226 | 34020 ft | 495 kts | 44° |
| 2026-05-06 00:23 | -33.87330 | -56.31123 | 34354 ft | 492 kts | 44° |
| 2026-05-06 00:23 | -33.85084 | -56.28011 | 34553 ft | 492 kts | 44° |
| 2026-05-06 00:23 | -33.82825 | -56.24897 | 34693 ft | 494 kts | 44° |
| 2026-05-06 00:24 | -33.80565 | -56.21777 | 34851 ft | 495 kts | 44° |
| 2026-05-06 00:24 | -33.78300 | -56.18644 | 34953 ft | 497 kts | 44° |
| 2026-05-06 00:24 | -33.76036 | -56.15488 | 35008 ft | 497 kts | 44° |
| 2026-05-06 00:25 | -33.71549 | -56.09199 | 35013 ft | 497 kts | 44° |
| 2026-05-06 00:25 | -33.67041 | -56.02887 | 35023 ft | 498 kts | 44° |
| 2026-05-06 00:26 | -33.62541 | -55.96606 | 35018 ft | 499 kts | 44° |
| 2026-05-06 00:26 | -33.58005 | -55.90293 | 35018 ft | 499 kts | 44° |
| 2026-05-06 00:27 | -33.53463 | -55.83981 | 35015 ft | 500 kts | 44° |
| 2026-05-06 00:27 | -33.48907 | -55.77664 | 35016 ft | 501 kts | 44° |
| 2026-05-06 00:28 | -33.44332 | -55.71331 | 35018 ft | 502 kts | 44° |
| 2026-05-06 00:28 | -33.39756 | -55.65004 | 35017 ft | 505 kts | 44° |
| 2026-05-06 00:29 | -33.35143 | -55.58641 | 35014 ft | 507 kts | 44° |
| 2026-05-06 00:29 | -33.30536 | -55.52294 | 35018 ft | 509 kts | 44° |
| 2026-05-06 00:30 | -33.25877 | -55.45890 | 35013 ft | 512 kts | 44° |
| 2026-05-06 00:30 | -33.21185 | -55.39450 | 35025 ft | 514 kts | 44° |
| 2026-05-06 00:31 | -33.16462 | -55.32979 | 35029 ft | 517 kts | 44° |
| 2026-05-06 00:31 | -33.11741 | -55.26521 | 35040 ft | 520 kts | 44° |
| 2026-05-06 00:32 | -33.06970 | -55.20010 | 35038 ft | 522 kts | 44° |
| 2026-05-06 00:32 | -33.02161 | -55.13455 | 35038 ft | 524 kts | 44° |
| 2026-05-06 00:33 | -32.97372 | -55.06940 | 35037 ft | 525 kts | 44° |
| 2026-05-06 00:33 | -32.92541 | -55.00379 | 35039 ft | 526 kts | 44° |
| 2026-05-06 00:34 | -32.87736 | -54.93866 | 35033 ft | 527 kts | 44° |
| 2026-05-06 00:34 | -32.82880 | -54.87296 | 35039 ft | 527 kts | 44° |
| 2026-05-06 00:35 | -32.78030 | -54.80745 | 35047 ft | 528 kts | 44° |
| 2026-05-06 00:35 | -32.73187 | -54.74216 | 35042 ft | 528 kts | 44° |
| 2026-05-06 00:36 | -32.68303 | -54.67645 | 35048 ft | 529 kts | 44° |
| 2026-05-06 00:36 | -32.63433 | -54.61101 | 35044 ft | 529 kts | 44° |
| 2026-05-06 00:37 | -32.58575 | -54.54588 | 35044 ft | 530 kts | 44° |
| 2026-05-06 00:37 | -32.53655 | -54.48003 | 35048 ft | 531 kts | 45° |
| 2026-05-06 00:38 | -32.48744 | -54.41440 | 35042 ft | 533 kts | 45° |
| 2026-05-06 00:38 | -32.43846 | -54.34905 | 35047 ft | 534 kts | 45° |
| 2026-05-06 00:39 | -32.38905 | -54.28325 | 35047 ft | 535 kts | 45° |
| 2026-05-06 00:39 | -32.33966 | -54.21758 | 35047 ft | 536 kts | 45° |
| 2026-05-06 00:40 | -32.29036 | -54.15117 | 35050 ft | 537 kts | 45° |
| 2026-05-06 00:40 | -32.24120 | -54.08445 | 35048 ft | 538 kts | 45° |
| 2026-05-06 00:41 | -32.19182 | -54.01766 | 35046 ft | 539 kts | 45° |
| 2026-05-06 00:41 | -32.14238 | -53.95107 | 35048 ft | 539 kts | 45° |
| 2026-05-06 00:42 | -32.09284 | -53.88445 | 35045 ft | 540 kts | 45° |
| 2026-05-06 00:42 | -32.04328 | -53.81790 | 35047 ft | 540 kts | 45° |
| 2026-05-06 00:43 | -31.99397 | -53.75186 | 35046 ft | 540 kts | 45° |
| 2026-05-06 00:43 | -31.94439 | -53.68550 | 35052 ft | 539 kts | 45° |
| 2026-05-06 00:44 | -31.89482 | -53.61927 | 35051 ft | 539 kts | 45° |
| 2026-05-06 00:44 | -31.84521 | -53.55308 | 35052 ft | 538 kts | 45° |
| 2026-05-06 00:45 | -31.79555 | -53.48697 | 35054 ft | 538 kts | 45° |
| 2026-05-06 00:45 | -31.74614 | -53.42131 | 35061 ft | 538 kts | 45° |
| 2026-05-06 00:46 | -31.69633 | -53.35530 | 35052 ft | 537 kts | 44° |
| 2026-05-06 00:46 | -31.64672 | -53.29009 | 35060 ft | 539 kts | 45° |
| 2026-05-06 00:47 | -31.59689 | -53.22406 | 35055 ft | 543 kts | 45° |
| 2026-05-06 00:47 | -31.54699 | -53.15802 | 35059 ft | 541 kts | 45° |
| 2026-05-06 00:48 | -31.49717 | -53.09220 | 35071 ft | 537 kts | 45° |
| 2026-05-06 00:48 | -31.44740 | -53.02653 | 35072 ft | 540 kts | 45° |
| 2026-05-06 00:49 | -31.39733 | -52.96173 | 35065 ft | 538 kts | 44° |
| 2026-05-06 00:49 | -31.34730 | -52.89571 | 35086 ft | 546 kts | 45° |
| 2026-05-06 00:50 | -31.29766 | -52.82980 | 35053 ft | 539 kts | 44° |
| 2026-05-06 00:50 | -31.24785 | -52.76492 | 35066 ft | 533 kts | 45° |
| 2026-05-06 00:51 | -31.19884 | -52.70059 | 35071 ft | 532 kts | 44° |
| 2026-05-06 00:51 | -31.14920 | -52.63633 | 35064 ft | 534 kts | 44° |
| 2026-05-06 00:52 | -31.09901 | -52.57133 | 35081 ft | 541 kts | 45° |
| 2026-05-06 00:52 | -31.04881 | -52.50582 | 35069 ft | 543 kts | 45° |
| 2026-05-06 00:53 | -30.99816 | -52.44036 | 35064 ft | 544 kts | 45° |
| 2026-05-06 00:53 | -30.94801 | -52.37554 | 35078 ft | 540 kts | 45° |
| 2026-05-06 00:54 | -30.89764 | -52.31093 | 35067 ft | 539 kts | 44° |
| 2026-05-06 00:54 | -30.84709 | -52.24646 | 35061 ft | 538 kts | 44° |
| 2026-05-06 00:55 | -30.79624 | -52.18334 | 35085 ft | 537 kts | 43° |
| 2026-05-06 00:55 | -30.74493 | -52.12010 | 35072 ft | 536 kts | 44° |
| 2026-05-06 00:56 | -30.69461 | -52.05693 | 35067 ft | 530 kts | 45° |
| 2026-05-06 00:56 | -30.64428 | -51.99440 | 35080 ft | 536 kts | 43° |
| 2026-05-06 00:57 | -30.59315 | -51.93116 | 35079 ft | 535 kts | 44° |
| 2026-05-06 00:57 | -30.54216 | -51.86772 | 35082 ft | 540 kts | 44° |
| 2026-05-06 00:58 | -30.49090 | -51.80399 | 35059 ft | 538 kts | 44° |
| 2026-05-06 00:58 | -30.43955 | -51.74143 | 35077 ft | 533 kts | 44° |
| 2026-05-06 00:59 | -30.39036 | -51.67796 | 35073 ft | 534 kts | 46° |
| 2026-05-06 00:59 | -30.34117 | -51.61297 | 35084 ft | 537 kts | 46° |
| 2026-05-06 01:00 | -30.29170 | -51.54785 | 35076 ft | 542 kts | 46° |
| 2026-05-06 01:00 | -30.24194 | -51.48293 | 35074 ft | 538 kts | 46° |
| 2026-05-06 01:01 | -30.19202 | -51.41819 | 35066 ft | 539 kts | 46° |
| 2026-05-06 01:01 | -30.14319 | -51.35386 | 35054 ft | 533 kts | 46° |
| 2026-05-06 01:02 | -30.09317 | -51.28946 | 35083 ft | 541 kts | 45° |
| 2026-05-06 01:02 | -30.04280 | -51.22549 | 35081 ft | 542 kts | 45° |
| 2026-05-06 01:03 | -29.99267 | -51.16067 | 35075 ft | 538 kts | 45° |
| 2026-05-06 01:03 | -29.94228 | -51.09633 | 35065 ft | 537 kts | 45° |
| 2026-05-06 01:04 | -29.89263 | -51.03259 | 35088 ft | 532 kts | 46° |
| 2026-05-06 01:04 | -29.84359 | -50.96899 | 35087 ft | 533 kts | 46° |
| 2026-05-06 01:05 | -29.79365 | -50.90526 | 35069 ft | 534 kts | 45° |
| 2026-05-06 01:05 | -29.74408 | -50.84329 | 35083 ft | 531 kts | 45° |
| 2026-05-06 01:06 | -29.69443 | -50.77984 | 35088 ft | 538 kts | 46° |
| 2026-05-06 01:06 | -29.64407 | -50.71512 | 35080 ft | 544 kts | 45° |
| 2026-05-06 01:07 | -29.59387 | -50.65187 | 35102 ft | 532 kts | 45° |
| 2026-05-06 01:07 | -29.54389 | -50.58818 | 35065 ft | 539 kts | 45° |
| 2026-05-06 01:08 | -29.49310 | -50.52528 | 35068 ft | 538 kts | 44° |
| 2026-05-06 01:08 | -29.44140 | -50.46288 | 35101 ft | 540 kts | 44° |
| 2026-05-06 01:09 | -29.38948 | -50.40037 | 35074 ft | 538 kts | 44° |
| 2026-05-06 01:09 | -29.33813 | -50.33889 | 35057 ft | 532 kts | 44° |
| 2026-05-06 01:10 | -29.28752 | -50.27755 | 35082 ft | 529 kts | 44° |
| 2026-05-06 01:10 | -29.23601 | -50.21536 | 35106 ft | 539 kts | 44° |
| 2026-05-06 01:11 | -29.18446 | -50.15331 | 35095 ft | 537 kts | 44° |
| 2026-05-06 01:11 | -29.13321 | -50.09179 | 35107 ft | 535 kts | 44° |
| 2026-05-06 01:12 | -29.08181 | -50.03016 | 35111 ft | 534 kts | 44° |
| 2026-05-06 01:12 | -29.03905 | -49.97895 | 35110 ft | 534 kts | 44° |
| 2026-05-06 01:13 | -28.98764 | -49.91746 | 35112 ft | 534 kts | 44° |
| 2026-05-06 01:13 | -28.93654 | -49.85642 | 35119 ft | 532 kts | 44° |
| 2026-05-06 01:14 | -28.86030 | -49.76388 | 35119 ft | 534 kts | 46° |
| 2026-05-06 01:14 | -28.81063 | -49.70061 | 35118 ft | 535 kts | 46° |
| 2026-05-06 01:15 | -28.76118 | -49.63773 | 35118 ft | 535 kts | 46° |
| 2026-05-06 01:15 | -28.71121 | -49.57476 | 35124 ft | 535 kts | 46° |
| 2026-05-06 01:16 | -28.66113 | -49.51192 | 35123 ft | 535 kts | 46° |
| 2026-05-06 01:16 | -28.61105 | -49.44916 | 35122 ft | 536 kts | 46° |
| 2026-05-06 01:17 | -28.56094 | -49.38641 | 35131 ft | 535 kts | 46° |
| 2026-05-06 01:17 | -28.51117 | -49.32418 | 35129 ft | 535 kts | 46° |
| 2026-05-06 01:18 | -28.46105 | -49.26160 | 35136 ft | 535 kts | 46° |
| 2026-05-06 01:18 | -28.41086 | -49.19929 | 35125 ft | 535 kts | 46° |
| 2026-05-06 01:19 | -28.36050 | -49.13701 | 35138 ft | 534 kts | 46° |
| 2026-05-06 01:19 | -28.31024 | -49.07486 | 35133 ft | 534 kts | 46° |
| 2026-05-06 01:20 | -28.26004 | -49.01259 | 35133 ft | 534 kts | 46° |
| 2026-05-06 01:20 | -28.21088 | -48.95002 | 35143 ft | 533 kts | 46° |
| 2026-05-06 01:21 | -28.16106 | -48.88744 | 35136 ft | 534 kts | 46° |
| 2026-05-06 01:21 | -28.11139 | -48.82554 | 35134 ft | 533 kts | 46° |
| 2026-05-06 01:22 | -28.06157 | -48.76346 | 35142 ft | 532 kts | 46° |
| 2026-05-06 01:22 | -28.01175 | -48.70134 | 35133 ft | 533 kts | 46° |
| 2026-05-06 01:23 | -27.96195 | -48.63933 | 35129 ft | 533 kts | 46° |
| 2026-05-06 01:23 | -27.91204 | -48.57728 | 35126 ft | 532 kts | 46° |
| 2026-05-06 01:24 | -27.86214 | -48.51533 | 35132 ft | 532 kts | 46° |
| 2026-05-06 01:24 | -27.81226 | -48.45352 | 35131 ft | 532 kts | 46° |
| 2026-05-06 01:25 | -27.76240 | -48.39180 | 35128 ft | 531 kts | 46° |
| 2026-05-06 01:25 | -27.71288 | -48.33057 | 35127 ft | 531 kts | 46° |
| 2026-05-06 01:26 | -27.66293 | -48.26892 | 35129 ft | 531 kts | 46° |
| 2026-05-06 01:26 | -27.61291 | -48.20728 | 35128 ft | 532 kts | 46° |
| 2026-05-06 01:27 | -27.56299 | -48.14583 | 35133 ft | 531 kts | 46° |
| 2026-05-06 01:27 | -27.51303 | -48.08438 | 35139 ft | 531 kts | 46° |
| 2026-05-06 01:28 | -27.46309 | -48.02307 | 35138 ft | 531 kts | 46° |
| 2026-05-06 01:28 | -27.41343 | -47.96216 | 35148 ft | 531 kts | 46° |
| 2026-05-06 01:29 | -27.36335 | -47.90096 | 35135 ft | 531 kts | 46° |
| 2026-05-06 01:29 | -27.31300 | -47.83999 | 35138 ft | 530 kts | 46° |
| 2026-05-06 01:30 | -27.26274 | -47.77926 | 35153 ft | 530 kts | 46° |
| 2026-05-06 01:30 | -27.21254 | -47.71860 | 35144 ft | 530 kts | 46° |
| 2026-05-06 01:31 | -27.16260 | -47.65830 | 35149 ft | 529 kts | 46° |
| 2026-05-06 01:31 | -27.11239 | -47.59776 | 35149 ft | 529 kts | 46° |
| 2026-05-06 01:32 | -27.06222 | -47.53736 | 35148 ft | 529 kts | 46° |
| 2026-05-06 01:32 | -27.01211 | -47.47710 | 35147 ft | 528 kts | 46° |
| 2026-05-06 01:33 | -26.96189 | -47.41679 | 35149 ft | 528 kts | 46° |
| 2026-05-06 01:33 | -26.91173 | -47.35664 | 35156 ft | 528 kts | 46° |
| 2026-05-06 01:34 | -26.86152 | -47.29661 | 35160 ft | 528 kts | 46° |
| 2026-05-06 01:34 | -26.81146 | -47.23708 | 35161 ft | 528 kts | 46° |
| 2026-05-06 01:35 | -26.76114 | -47.17732 | 35167 ft | 527 kts | 46° |
| 2026-05-06 01:35 | -26.71083 | -47.11755 | 35167 ft | 527 kts | 46° |
| 2026-05-06 01:36 | -26.66062 | -47.05742 | 35172 ft | 527 kts | 46° |
| 2026-05-06 01:36 | -26.61087 | -46.99780 | 35178 ft | 527 kts | 46° |
| 2026-05-06 01:37 | -26.56052 | -46.93817 | 35174 ft | 527 kts | 46° |
| 2026-05-06 01:37 | -26.50988 | -46.87892 | 35176 ft | 527 kts | 46° |
| 2026-05-06 01:38 | -26.45926 | -46.81965 | 35177 ft | 527 kts | 46° |
| 2026-05-06 01:38 | -26.40870 | -46.76039 | 35175 ft | 526 kts | 46° |
| 2026-05-06 01:39 | -26.35821 | -46.70135 | 35181 ft | 525 kts | 46° |
| 2026-05-06 01:39 | -26.30808 | -46.64278 | 35186 ft | 525 kts | 46° |
| 2026-05-06 01:40 | -26.25759 | -46.58388 | 35182 ft | 524 kts | 46° |
| 2026-05-06 01:40 | -26.20719 | -46.52511 | 35184 ft | 524 kts | 46° |
| 2026-05-06 01:41 | -26.15682 | -46.46647 | 35190 ft | 524 kts | 46° |
| 2026-05-06 01:41 | -26.10637 | -46.40781 | 35196 ft | 523 kts | 46° |
| 2026-05-06 01:42 | -26.05629 | -46.34967 | 35212 ft | 523 kts | 46° |
| 2026-05-06 01:42 | -26.00585 | -46.29117 | 35218 ft | 523 kts | 46° |
| 2026-05-06 01:43 | -25.95545 | -46.23281 | 35226 ft | 523 kts | 46° |
| 2026-05-06 01:43 | -25.90501 | -46.17449 | 35237 ft | 523 kts | 46° |
| 2026-05-06 01:44 | -25.85485 | -46.11655 | 35242 ft | 523 kts | 46° |
| 2026-05-06 01:44 | -25.80430 | -46.05823 | 35240 ft | 523 kts | 46° |
| 2026-05-06 01:45 | -25.75383 | -46.00008 | 35241 ft | 523 kts | 46° |
| 2026-05-06 01:45 | -25.70329 | -45.94192 | 35245 ft | 523 kts | 46° |
| 2026-05-06 01:46 | -25.65279 | -45.88389 | 35250 ft | 523 kts | 46° |
| 2026-05-06 01:46 | -25.60250 | -45.82623 | 35249 ft | 523 kts | 46° |
| 2026-05-06 01:47 | -25.55173 | -45.76811 | 35240 ft | 524 kts | 46° |
| 2026-05-06 01:47 | -25.50132 | -45.71044 | 35238 ft | 523 kts | 46° |
| 2026-05-06 01:48 | -25.45064 | -45.65253 | 35246 ft | 523 kts | 46° |
| 2026-05-06 01:48 | -25.39992 | -45.59465 | 35249 ft | 523 kts | 46° |
| 2026-05-06 01:49 | -25.34917 | -45.53682 | 35247 ft | 523 kts | 46° |
| 2026-05-06 01:49 | -25.30154 | -45.48261 | 35249 ft | 523 kts | 46° |
| 2026-05-06 01:50 | -25.25076 | -45.42486 | 35244 ft | 523 kts | 46° |
| 2026-05-06 01:50 | -25.20010 | -45.36735 | 35238 ft | 522 kts | 46° |
| 2026-05-06 01:51 | -25.14940 | -45.30985 | 35241 ft | 522 kts | 46° |
| 2026-05-06 01:51 | -25.09867 | -45.25239 | 35235 ft | 522 kts | 46° |
| 2026-05-06 01:52 | -25.04830 | -45.19541 | 35226 ft | 522 kts | 46° |
| 2026-05-06 01:52 | -24.99750 | -45.13802 | 35223 ft | 522 kts | 46° |
| 2026-05-06 01:53 | -24.94672 | -45.08074 | 35220 ft | 522 kts | 46° |
| 2026-05-06 01:53 | -24.89592 | -45.02350 | 35223 ft | 522 kts | 46° |
| 2026-05-06 01:54 | -24.84511 | -44.96631 | 35220 ft | 522 kts | 46° |
| 2026-05-06 01:54 | -24.79465 | -44.90958 | 35222 ft | 521 kts | 46° |
| 2026-05-06 01:55 | -24.74378 | -44.85247 | 35223 ft | 521 kts | 46° |
| 2026-05-06 01:55 | -24.69300 | -44.79552 | 35217 ft | 521 kts | 46° |
| 2026-05-06 01:56 | -24.64216 | -44.73858 | 35210 ft | 521 kts | 46° |
| 2026-05-06 01:56 | -24.59173 | -44.68217 | 35212 ft | 520 kts | 46° |
| 2026-05-06 01:57 | -24.54097 | -44.62545 | 35214 ft | 520 kts | 46° |
| 2026-05-06 01:57 | -24.49015 | -44.56873 | 35212 ft | 519 kts | 45° |
| 2026-05-06 01:58 | -24.43906 | -44.51267 | 35212 ft | 519 kts | 45° |
| 2026-05-06 01:58 | -24.38770 | -44.45687 | 35214 ft | 519 kts | 45° |
| 2026-05-06 01:59 | -24.33640 | -44.40109 | 35211 ft | 519 kts | 45° |
| 2026-05-06 01:59 | -24.28548 | -44.34564 | 35208 ft | 519 kts | 45° |
| 2026-05-06 02:00 | -24.23420 | -44.28986 | 35203 ft | 519 kts | 45° |
| 2026-05-06 02:00 | -24.18282 | -44.23405 | 35206 ft | 518 kts | 45° |
| 2026-05-06 02:01 | -24.13160 | -44.17848 | 35199 ft | 518 kts | 45° |
| 2026-05-06 02:01 | -24.08078 | -44.12339 | 35205 ft | 517 kts | 45° |
| 2026-05-06 02:02 | -24.02956 | -44.06793 | 35199 ft | 517 kts | 45° |
| 2026-05-06 02:02 | -23.97837 | -44.01262 | 35203 ft | 517 kts | 45° |
| 2026-05-06 02:03 | -23.92707 | -43.95731 | 35201 ft | 517 kts | 45° |
| 2026-05-06 02:03 | -23.87587 | -43.90215 | 35203 ft | 517 kts | 45° |
| 2026-05-06 02:04 | -23.82494 | -43.84733 | 35197 ft | 517 kts | 45° |
| 2026-05-06 02:04 | -23.77358 | -43.79209 | 35193 ft | 518 kts | 45° |
| 2026-05-06 02:05 | -23.72222 | -43.73692 | 35194 ft | 518 kts | 45° |
| 2026-05-06 02:05 | -23.67081 | -43.68176 | 35194 ft | 518 kts | 45° |
| 2026-05-06 02:06 | -23.61953 | -43.62667 | 35187 ft | 517 kts | 45° |
| 2026-05-06 02:06 | -23.56955 | -43.57010 | 35183 ft | 517 kts | 47° |
| 2026-05-06 02:07 | -23.51999 | -43.51331 | 35185 ft | 517 kts | 46° |
| 2026-05-06 02:07 | -23.47050 | -43.45721 | 35185 ft | 516 kts | 47° |
| 2026-05-06 02:08 | -23.42111 | -43.40024 | 35183 ft | 516 kts | 47° |
| 2026-05-06 02:08 | -23.37192 | -43.34338 | 35183 ft | 516 kts | 47° |
| 2026-05-06 02:09 | -23.32233 | -43.28694 | 35178 ft | 516 kts | 44° |
| 2026-05-06 02:09 | -23.26623 | -43.23809 | 35445 ft | 518 kts | 33° |
| 2026-05-06 02:10 | -23.23621 | -43.21647 | 35815 ft | 517 kts | 33° |
| 2026-05-06 02:10 | -23.20624 | -43.19495 | 36216 ft | 514 kts | 33° |
| 2026-05-06 02:10 | -23.17663 | -43.17360 | 36584 ft | 513 kts | 33° |
| 2026-05-06 02:10 | -23.14695 | -43.15207 | 36890 ft | 512 kts | 33° |
| 2026-05-06 02:11 | -23.11729 | -43.13045 | 37096 ft | 514 kts | 33° |
| 2026-05-06 02:11 | -23.08756 | -43.10870 | 37135 ft | 516 kts | 33° |
| 2026-05-06 02:11 | -23.02844 | -43.06538 | 37158 ft | 512 kts | 33° |
| 2026-05-06 02:12 | -22.96966 | -43.02236 | 37153 ft | 507 kts | 33° |
| 2026-05-06 02:12 | -22.91132 | -42.97973 | 37152 ft | 503 kts | 33° |
| 2026-05-06 02:13 | -22.85325 | -42.93737 | 37165 ft | 502 kts | 33° |
| 2026-05-06 02:13 | -22.79567 | -42.89541 | 37174 ft | 502 kts | 33° |
| 2026-05-06 02:14 | -22.73767 | -42.85317 | 37170 ft | 502 kts | 33° |
| 2026-05-06 02:14 | -22.67955 | -42.81090 | 37171 ft | 502 kts | 33° |
| 2026-05-06 02:15 | -22.62154 | -42.76875 | 37181 ft | 502 kts | 33° |
| 2026-05-06 02:15 | -22.56356 | -42.72666 | 37184 ft | 502 kts | 33° |
| 2026-05-06 02:16 | -22.51538 | -42.69173 | 37194 ft | 502 kts | 33° |
| 2026-05-06 02:16 | -22.45734 | -42.64969 | 37193 ft | 501 kts | 33° |
| 2026-05-06 02:17 | -22.39969 | -42.60795 | 37196 ft | 501 kts | 33° |
| 2026-05-06 02:17 | -22.34167 | -42.56601 | 37175 ft | 501 kts | 33° |
| 2026-05-06 02:18 | -22.28381 | -42.52421 | 37203 ft | 500 kts | 33° |
| 2026-05-06 02:18 | -22.22596 | -42.48246 | 37197 ft | 499 kts | 33° |
| 2026-05-06 02:19 | -22.16856 | -42.44110 | 37196 ft | 498 kts | 33° |
| 2026-05-06 02:19 | -22.11083 | -42.39952 | 37196 ft | 498 kts | 33° |
| 2026-05-06 02:20 | -22.02431 | -42.33730 | 37199 ft | 497 kts | 33° |
| 2026-05-06 02:21 | -21.96722 | -42.29628 | 37202 ft | 496 kts | 33° |
| 2026-05-06 02:21 | -21.90976 | -42.25503 | 37203 ft | 496 kts | 33° |
| 2026-05-06 02:22 | -21.85217 | -42.21374 | 37205 ft | 496 kts | 33° |
| 2026-05-06 02:22 | -21.79285 | -42.17600 | 37209 ft | 494 kts | 28° |
| 2026-05-06 02:23 | -21.73252 | -42.14037 | 37207 ft | 495 kts | 28° |
| 2026-05-06 02:23 | -21.67255 | -42.10483 | 37202 ft | 495 kts | 28° |
| 2026-05-06 02:24 | -21.61218 | -42.06882 | 37209 ft | 496 kts | 28° |
| 2026-05-06 02:24 | -21.55179 | -42.03275 | 37215 ft | 497 kts | 28° |
| 2026-05-06 02:25 | -21.49123 | -41.99663 | 37212 ft | 498 kts | 28° |
| 2026-05-06 02:25 | -21.43061 | -41.96051 | 37214 ft | 498 kts | 28° |
| 2026-05-06 02:26 | -21.37005 | -41.92447 | 37210 ft | 498 kts | 28° |
| 2026-05-06 02:26 | -21.30977 | -41.88861 | 37213 ft | 497 kts | 28° |
| 2026-05-06 02:27 | -21.24924 | -41.85265 | 37210 ft | 496 kts | 28° |
| 2026-05-06 02:27 | -21.18884 | -41.81680 | 37211 ft | 496 kts | 28° |
| 2026-05-06 02:28 | -21.12847 | -41.78100 | 37212 ft | 495 kts | 28° |
| 2026-05-06 02:28 | -21.06813 | -41.74523 | 37212 ft | 495 kts | 28° |
| 2026-05-06 02:29 | -21.00823 | -41.70976 | 37212 ft | 495 kts | 28° |
| 2026-05-06 02:29 | -20.94791 | -41.67405 | 37212 ft | 495 kts | 28° |
| 2026-05-06 02:30 | -20.88762 | -41.63839 | 37208 ft | 495 kts | 27° |
| 2026-05-06 02:30 | -20.82734 | -41.60279 | 37212 ft | 495 kts | 27° |
| 2026-05-06 02:31 | -20.76695 | -41.56714 | 37212 ft | 495 kts | 27° |
| 2026-05-06 02:31 | -20.70674 | -41.53164 | 37216 ft | 495 kts | 27° |
| 2026-05-06 02:32 | -20.64679 | -41.49632 | 37212 ft | 495 kts | 27° |
| 2026-05-06 02:32 | -20.58638 | -41.46076 | 37212 ft | 495 kts | 27° |
| 2026-05-06 02:33 | -20.52597 | -41.42522 | 37215 ft | 495 kts | 27° |
| 2026-05-06 02:33 | -20.50597 | -41.41346 | 37214 ft | 495 kts | 27° |
| 2026-05-06 02:34 | -20.40514 | -41.35392 | 37210 ft | 496 kts | 28° |
| 2026-05-06 02:34 | -20.34514 | -41.31844 | 37212 ft | 496 kts | 28° |
| 2026-05-06 02:35 | -20.28478 | -41.28279 | 37214 ft | 496 kts | 27° |
| 2026-05-06 02:35 | -20.22435 | -41.24713 | 37212 ft | 496 kts | 27° |
| 2026-05-06 02:36 | -20.16395 | -41.21152 | 37214 ft | 496 kts | 27° |
| 2026-05-06 02:36 | -20.10342 | -41.17582 | 37207 ft | 495 kts | 27° |
| 2026-05-06 02:37 | -20.04347 | -41.14048 | 37217 ft | 495 kts | 27° |
| 2026-05-06 02:37 | -19.98315 | -41.10493 | 37215 ft | 495 kts | 27° |
| 2026-05-06 02:38 | -19.92272 | -41.06934 | 37206 ft | 495 kts | 27° |
| 2026-05-06 02:38 | -19.86239 | -41.03383 | 37214 ft | 495 kts | 27° |
| 2026-05-06 02:39 | -19.80228 | -40.99885 | 37215 ft | 495 kts | 27° |
| 2026-05-06 02:39 | -19.74167 | -40.96384 | 37211 ft | 495 kts | 27° |
| 2026-05-06 02:40 | -19.68108 | -40.92880 | 37210 ft | 495 kts | 27° |
| 2026-05-06 02:40 | -19.62062 | -40.89380 | 37212 ft | 494 kts | 27° |
| 2026-05-06 02:41 | -19.56013 | -40.85885 | 37217 ft | 494 kts | 27° |
| 2026-05-06 02:41 | -19.50014 | -40.82416 | 37213 ft | 494 kts | 27° |
| 2026-05-06 02:42 | -19.43977 | -40.78923 | 37212 ft | 494 kts | 27° |
| 2026-05-06 02:42 | -19.37939 | -40.75435 | 37214 ft | 494 kts | 27° |
| 2026-05-06 02:43 | -19.31905 | -40.71951 | 37210 ft | 494 kts | 27° |
| 2026-05-06 02:43 | -19.25876 | -40.68473 | 37211 ft | 494 kts | 27° |
| 2026-05-06 02:44 | -19.19830 | -40.64987 | 37213 ft | 494 kts | 26° |
| 2026-05-06 02:44 | -19.13782 | -40.61504 | 37211 ft | 494 kts | 26° |
| 2026-05-06 02:45 | -19.07739 | -40.58027 | 37211 ft | 495 kts | 26° |
| 2026-05-06 02:45 | -19.01692 | -40.54550 | 37214 ft | 495 kts | 26° |
| 2026-05-06 02:46 | -18.95679 | -40.51096 | 37214 ft | 495 kts | 26° |
| 2026-05-06 02:46 | -18.89625 | -40.47620 | 37212 ft | 495 kts | 26° |
| 2026-05-06 02:47 | -18.83562 | -40.44144 | 37205 ft | 496 kts | 26° |
| 2026-05-06 02:47 | -18.77491 | -40.40665 | 37198 ft | 496 kts | 26° |
| 2026-05-06 02:48 | -18.71409 | -40.37183 | 37207 ft | 496 kts | 26° |
| 2026-05-06 02:48 | -18.65364 | -40.33725 | 37202 ft | 497 kts | 26° |
| 2026-05-06 02:49 | -18.59272 | -40.30243 | 37205 ft | 497 kts | 26° |
| 2026-05-06 02:49 | -18.53192 | -40.26769 | 37201 ft | 497 kts | 26° |
| 2026-05-06 02:50 | -18.47106 | -40.23296 | 37204 ft | 497 kts | 26° |
| 2026-05-06 02:50 | -18.41057 | -40.19847 | 37204 ft | 497 kts | 26° |
| 2026-05-06 02:51 | -18.34963 | -40.16375 | 37198 ft | 497 kts | 26° |
| 2026-05-06 02:51 | -18.28861 | -40.12901 | 37193 ft | 497 kts | 26° |
| 2026-05-06 02:52 | -18.22771 | -40.09436 | 37192 ft | 497 kts | 25° |
| 2026-05-06 02:52 | -18.16681 | -40.05973 | 37195 ft | 497 kts | 25° |
| 2026-05-06 02:53 | -18.10626 | -40.02535 | 37193 ft | 497 kts | 25° |
| 2026-05-06 02:53 | -18.04527 | -39.99072 | 37195 ft | 497 kts | 25° |
| 2026-05-06 02:54 | -17.98430 | -39.95612 | 37194 ft | 497 kts | 25° |
| 2026-05-06 02:54 | -17.92384 | -39.92162 | 37183 ft | 497 kts | 26° |
| 2026-05-06 02:55 | -17.86295 | -39.88682 | 37180 ft | 497 kts | 26° |
| 2026-05-06 02:55 | -17.80219 | -39.85215 | 37190 ft | 497 kts | 25° |
| 2026-05-06 02:56 | -17.74132 | -39.81743 | 37179 ft | 497 kts | 25° |
| 2026-05-06 02:56 | -17.68086 | -39.78300 | 37173 ft | 497 kts | 25° |
| 2026-05-06 02:57 | -17.61997 | -39.74838 | 37176 ft | 497 kts | 25° |
| 2026-05-06 02:57 | -17.55921 | -39.71383 | 37176 ft | 496 kts | 25° |
| 2026-05-06 02:58 | -17.49844 | -39.67931 | 37177 ft | 496 kts | 25° |
| 2026-05-06 02:58 | -17.43772 | -39.64483 | 37169 ft | 496 kts | 25° |
| 2026-05-06 02:59 | -17.37741 | -39.61062 | 37168 ft | 496 kts | 25° |
| 2026-05-06 02:59 | -17.31673 | -39.57622 | 37162 ft | 495 kts | 25° |
| 2026-05-06 03:00 | -17.25615 | -39.54190 | 37167 ft | 495 kts | 25° |
| 2026-05-06 03:00 | -17.19561 | -39.50764 | 37172 ft | 494 kts | 25° |
| 2026-05-06 03:01 | -17.13511 | -39.47341 | 37162 ft | 494 kts | 25° |
| 2026-05-06 03:01 | -17.07472 | -39.43927 | 37172 ft | 493 kts | 25° |
| 2026-05-06 03:02 | -17.01472 | -39.40539 | 37171 ft | 493 kts | 25° |
| 2026-05-06 03:02 | -16.95437 | -39.37135 | 37162 ft | 492 kts | 25° |
| 2026-05-06 03:03 | -16.89404 | -39.33731 | 37157 ft | 492 kts | 25° |
| 2026-05-06 03:03 | -16.84395 | -39.30907 | 37159 ft | 492 kts | 25° |
| 2026-05-06 03:04 | -16.78367 | -39.27510 | 37156 ft | 492 kts | 25° |
| 2026-05-06 03:04 | -16.72342 | -39.24116 | 37157 ft | 492 kts | 25° |
| 2026-05-06 03:05 | -16.66309 | -39.20722 | 37156 ft | 491 kts | 25° |
| 2026-05-06 03:05 | -16.60318 | -39.17354 | 37158 ft | 491 kts | 25° |
| 2026-05-06 03:06 | -16.54296 | -39.13971 | 37158 ft | 491 kts | 25° |
| 2026-05-06 03:06 | -16.48282 | -39.10592 | 37155 ft | 490 kts | 25° |
| 2026-05-06 03:07 | -16.42267 | -39.07235 | 37158 ft | 489 kts | 24° |
| 2026-05-06 03:07 | -16.36215 | -39.04012 | 37156 ft | 488 kts | 23° |
| 2026-05-06 03:08 | -16.30166 | -39.00811 | 37157 ft | 488 kts | 24° |
| 2026-05-06 03:08 | -16.24125 | -38.97589 | 37154 ft | 487 kts | 24° |
| 2026-05-06 03:09 | -16.18114 | -38.94329 | 37157 ft | 487 kts | 24° |
| 2026-05-06 03:09 | -16.12122 | -38.91024 | 37157 ft | 487 kts | 24° |
| 2026-05-06 03:10 | -16.06163 | -38.87746 | 37157 ft | 487 kts | 24° |
| 2026-05-06 03:10 | -16.00171 | -38.84461 | 37156 ft | 487 kts | 24° |
| 2026-05-06 03:11 | -15.94172 | -38.81177 | 37155 ft | 487 kts | 24° |
| 2026-05-06 03:11 | -15.88176 | -38.77894 | 37151 ft | 487 kts | 24° |
| 2026-05-06 03:12 | -15.82179 | -38.74614 | 37146 ft | 487 kts | 24° |
| 2026-05-06 03:12 | -15.76176 | -38.71336 | 37149 ft | 487 kts | 24° |
| 2026-05-06 03:13 | -15.70176 | -38.68060 | 37148 ft | 487 kts | 24° |
| 2026-05-06 03:13 | -15.64217 | -38.64807 | 37145 ft | 487 kts | 24° |
| 2026-05-06 03:14 | -15.58211 | -38.61531 | 37140 ft | 487 kts | 24° |
| 2026-05-06 03:14 | -15.52205 | -38.58258 | 37139 ft | 487 kts | 24° |
| 2026-05-06 03:15 | -15.46208 | -38.54991 | 37139 ft | 487 kts | 24° |
| 2026-05-06 03:15 | -15.40210 | -38.51726 | 37138 ft | 487 kts | 24° |
| 2026-05-06 03:16 | -15.34207 | -38.48460 | 37140 ft | 487 kts | 24° |
| 2026-05-06 03:16 | -15.28201 | -38.45195 | 37138 ft | 487 kts | 24° |
| 2026-05-06 03:17 | -15.22225 | -38.41948 | 37131 ft | 487 kts | 24° |
| 2026-05-06 03:17 | -15.16214 | -38.38684 | 37129 ft | 487 kts | 24° |
| 2026-05-06 03:18 | -15.10204 | -38.35422 | 37130 ft | 487 kts | 24° |
| 2026-05-06 03:18 | -15.04231 | -38.32182 | 37129 ft | 487 kts | 24° |
| 2026-05-06 03:19 | -14.98223 | -38.28927 | 37129 ft | 487 kts | 24° |
| 2026-05-06 03:19 | -14.92221 | -38.25670 | 37131 ft | 487 kts | 24° |
| 2026-05-06 03:20 | -14.83212 | -38.20783 | 37131 ft | 488 kts | 23° |
| 2026-05-06 03:20 | -14.77230 | -38.17541 | 37129 ft | 488 kts | 23° |
| 2026-05-06 03:21 | -14.71218 | -38.14285 | 37123 ft | 488 kts | 23° |
| 2026-05-06 03:21 | -14.65202 | -38.11029 | 37123 ft | 488 kts | 23° |
| 2026-05-06 03:22 | -14.59184 | -38.07773 | 37119 ft | 488 kts | 23° |
| 2026-05-06 03:22 | -14.53171 | -38.04522 | 37118 ft | 488 kts | 23° |
| 2026-05-06 03:23 | -14.47145 | -38.01267 | 37107 ft | 488 kts | 23° |
| 2026-05-06 03:23 | -14.41130 | -37.98019 | 37112 ft | 487 kts | 23° |
| 2026-05-06 03:24 | -14.35120 | -37.94776 | 37113 ft | 487 kts | 23° |
| 2026-05-06 03:24 | -14.29124 | -37.91542 | 37115 ft | 486 kts | 23° |
| 2026-05-06 03:25 | -14.23132 | -37.88313 | 37100 ft | 486 kts | 23° |
| 2026-05-06 03:25 | -14.17175 | -37.85104 | 37094 ft | 485 kts | 23° |
| 2026-05-06 03:26 | -14.11190 | -37.81883 | 37097 ft | 485 kts | 23° |
| 2026-05-06 03:26 | -14.05192 | -37.78657 | 37103 ft | 485 kts | 23° |
| 2026-05-06 03:27 | -13.99240 | -37.75458 | 37106 ft | 485 kts | 23° |
| 2026-05-06 03:27 | -13.93235 | -37.72230 | 37096 ft | 486 kts | 23° |
| 2026-05-06 03:28 | -13.87242 | -37.69012 | 37092 ft | 486 kts | 23° |
| 2026-05-06 03:28 | -13.81239 | -37.65790 | 37092 ft | 486 kts | 23° |
| 2026-05-06 03:29 | -13.75274 | -37.62591 | 37099 ft | 486 kts | 23° |
| 2026-05-06 03:29 | -13.69264 | -37.59369 | 37083 ft | 486 kts | 23° |
| 2026-05-06 03:30 | -13.63261 | -37.56152 | 37083 ft | 486 kts | 23° |
| 2026-05-06 03:30 | -13.57266 | -37.52942 | 37083 ft | 486 kts | 23° |
| 2026-05-06 03:31 | -13.51258 | -37.49727 | 37083 ft | 486 kts | 23° |
| 2026-05-06 03:31 | -13.45252 | -37.46515 | 37084 ft | 486 kts | 23° |
| 2026-05-06 03:32 | -13.39290 | -37.43327 | 37083 ft | 486 kts | 23° |
| 2026-05-06 03:32 | -13.33293 | -37.40123 | 37084 ft | 486 kts | 23° |
| 2026-05-06 03:33 | -13.27285 | -37.36916 | 37084 ft | 486 kts | 23° |
| 2026-05-06 03:33 | -13.21287 | -37.33714 | 37083 ft | 486 kts | 23° |
| 2026-05-06 03:34 | -13.15289 | -37.30515 | 37083 ft | 486 kts | 23° |
| 2026-05-06 03:34 | -13.09284 | -37.27313 | 37083 ft | 486 kts | 22° |
| 2026-05-06 03:35 | -13.03287 | -37.24122 | 37084 ft | 486 kts | 22° |
| 2026-05-06 03:35 | -12.97284 | -37.20932 | 37075 ft | 486 kts | 22° |
| 2026-05-06 03:36 | -12.91276 | -37.17739 | 37074 ft | 486 kts | 22° |
| 2026-05-06 03:36 | -12.85311 | -37.14570 | 37073 ft | 486 kts | 22° |
| 2026-05-06 03:37 | -12.79307 | -37.11382 | 37075 ft | 486 kts | 22° |
| 2026-05-06 03:37 | -12.73302 | -37.08195 | 37074 ft | 485 kts | 22° |
| 2026-05-06 03:38 | -12.67300 | -37.05011 | 37074 ft | 485 kts | 22° |
| 2026-05-06 03:38 | -12.61304 | -37.01832 | 37067 ft | 485 kts | 22° |
| 2026-05-06 03:39 | -12.55327 | -36.98666 | 37063 ft | 486 kts | 22° |
| 2026-05-06 03:39 | -12.49322 | -36.95485 | 37066 ft | 485 kts | 22° |
| 2026-05-06 03:40 | -12.43321 | -36.92309 | 37063 ft | 485 kts | 22° |
| 2026-05-06 03:40 | -12.37318 | -36.89131 | 37064 ft | 485 kts | 22° |
| 2026-05-06 03:41 | -12.31309 | -36.85956 | 37065 ft | 485 kts | 22° |
| 2026-05-06 03:41 | -12.25295 | -36.82785 | 37061 ft | 485 kts | 22° |
| 2026-05-06 03:42 | -12.19332 | -36.79641 | 37053 ft | 485 kts | 22° |
| 2026-05-06 03:42 | -12.13328 | -36.76474 | 37058 ft | 485 kts | 22° |
| 2026-05-06 03:43 | -12.07333 | -36.73316 | 37058 ft | 484 kts | 22° |
| 2026-05-06 03:43 | -12.01332 | -36.70154 | 37053 ft | 484 kts | 22° |
| 2026-05-06 03:44 | -11.95337 | -36.66999 | 37053 ft | 484 kts | 22° |
| 2026-05-06 03:44 | -11.89355 | -36.63852 | 37054 ft | 484 kts | 22° |
| 2026-05-06 03:45 | -11.83362 | -36.60700 | 37054 ft | 484 kts | 22° |
| 2026-05-06 03:45 | -11.77373 | -36.57552 | 37058 ft | 484 kts | 22° |
| 2026-05-06 03:46 | -11.71417 | -36.54423 | 37057 ft | 485 kts | 22° |
| 2026-05-06 03:46 | -11.65415 | -36.51271 | 37057 ft | 485 kts | 22° |
| 2026-05-06 03:47 | -11.59408 | -36.48117 | 37054 ft | 485 kts | 22° |
| 2026-05-06 03:47 | -11.53405 | -36.44967 | 37056 ft | 485 kts | 22° |
| 2026-05-06 03:48 | -11.48421 | -36.42353 | 37053 ft | 485 kts | 22° |
| 2026-05-06 03:48 | -11.41445 | -36.38698 | 37058 ft | 485 kts | 22° |
| 2026-05-06 03:49 | -11.36417 | -36.36063 | 37057 ft | 484 kts | 22° |
| 2026-05-06 03:49 | -11.30413 | -36.32918 | 37053 ft | 485 kts | 22° |
| 2026-05-06 03:50 | -11.24459 | -36.29802 | 37057 ft | 485 kts | 22° |
| 2026-05-06 03:50 | -11.18456 | -36.26660 | 37057 ft | 485 kts | 22° |
| 2026-05-06 03:51 | -11.12445 | -36.23516 | 37055 ft | 485 kts | 23° |
| 2026-05-06 03:51 | -11.06533 | -36.20158 | 37051 ft | 487 kts | 26° |
| 2026-05-06 03:52 | -11.00692 | -36.16650 | 37047 ft | 488 kts | 26° |
| 2026-05-06 03:52 | -10.94827 | -36.13158 | 37043 ft | 488 kts | 26° |
| 2026-05-06 03:53 | -10.88988 | -36.09725 | 37053 ft | 488 kts | 25° |
| 2026-05-06 03:53 | -10.83097 | -36.06276 | 37056 ft | 488 kts | 25° |
| 2026-05-06 03:54 | -10.77212 | -36.02830 | 37058 ft | 488 kts | 25° |
| 2026-05-06 03:54 | -10.71315 | -35.99378 | 37053 ft | 488 kts | 26° |
| 2026-05-06 03:55 | -10.65449 | -35.95942 | 37055 ft | 489 kts | 26° |
| 2026-05-06 03:55 | -10.59544 | -35.92488 | 37053 ft | 489 kts | 26° |
| 2026-05-06 03:56 | -10.53648 | -35.89040 | 37057 ft | 489 kts | 26° |
| 2026-05-06 03:56 | -10.47748 | -35.85590 | 37054 ft | 489 kts | 26° |
| 2026-05-06 03:57 | -10.41875 | -35.82157 | 37056 ft | 489 kts | 26° |
| 2026-05-06 03:57 | -10.35971 | -35.78709 | 37054 ft | 489 kts | 26° |
| 2026-05-06 03:58 | -10.30063 | -35.75269 | 37054 ft | 489 kts | 26° |
| 2026-05-06 03:58 | -10.24149 | -35.71829 | 37052 ft | 489 kts | 26° |
| 2026-05-06 03:59 | -10.18240 | -35.68392 | 37049 ft | 489 kts | 26° |
| 2026-05-06 03:59 | -10.12362 | -35.64971 | 37049 ft | 489 kts | 26° |
| 2026-05-06 04:00 | -10.06451 | -35.61533 | 37047 ft | 489 kts | 26° |
| 2026-05-06 04:00 | -10.00547 | -35.58102 | 37050 ft | 489 kts | 26° |
| 2026-05-06 04:01 | -9.94644 | -35.54672 | 37046 ft | 488 kts | 26° |
| 2026-05-06 04:01 | -9.88776 | -35.51264 | 37043 ft | 489 kts | 26° |
| 2026-05-06 04:02 | -9.82867 | -35.47833 | 37051 ft | 489 kts | 26° |
| 2026-05-06 04:02 | -9.76959 | -35.44406 | 37043 ft | 489 kts | 26° |
| 2026-05-06 04:03 | -9.71042 | -35.40973 | 37049 ft | 489 kts | 26° |
| 2026-05-06 04:03 | -9.65175 | -35.37571 | 37046 ft | 489 kts | 26° |
| 2026-05-06 04:04 | -9.59273 | -35.34151 | 37049 ft | 489 kts | 26° |
| 2026-05-06 04:04 | -9.53368 | -35.30730 | 37045 ft | 489 kts | 26° |
| 2026-05-06 04:05 | -9.47462 | -35.27309 | 37044 ft | 489 kts | 26° |
| 2026-05-06 04:05 | -9.41556 | -35.23890 | 37048 ft | 489 kts | 26° |